Latest Weather Observations for Warracknabeal Airport

IDV60801

Issued at 6:03 pm EST Monday 25 September 2017 (issued every 30 minutes, with the page automatically refreshed every 10 minutes)

About weather observations | Map of weather stations | Latest weather observations for VIC | Other Formats
Station Details ID: 078018 Name: WARRACKNABEAL AIRPORT Lat: -36.32 Lon: 142.42 Height: 118.3 m
Data from the previous 72 hours. | See also: Recent months for locations in Victoria
Date/Time
EST
Temp
°C
App
Temp
°C
Dew
Point
°C
Rel
Hum
%
Delta-T
°C
Wind Press
QNH
hPa
Press
MSL
hPa
Rain since
9am
mm
Dir  Spd
km/h
Gust
km/h
Spd
kts
Gust
kts
25/06:00pm 14.3 10.8 7.1 62 3.5 WSW 15 20 8 11 1013.1 1013.2 0.2
25/05:30pm 15.2 10.6 6.7 57 4.2 WSW 20 26 11 14 1012.7 1012.8 0.2
25/05:00pm 16.4 11.5 8.4 59 4.1 WSW 24 35 13 19 1012.6 1012.7 0.2
25/04:30pm 16.4 12.5 7.1 54 4.6 WSW 17 22 9 12 1012.3 1012.4 0.2
25/04:00pm 15.0 9.2 7.8 62 3.6 WSW 28 41 15 22 1012.3 1012.4 0.2
25/03:30pm 16.6 12.0 6.7 52 4.9 W 20 26 11 14 1011.8 1011.9 0.2
25/03:00pm 16.7 11.0 5.0 46 5.6 SW 24 33 13 18 1011.7 1011.8 0.2
25/02:30pm 17.1 11.2 5.7 47 5.6 WSW 26 33 14 18 1011.9 1012.0 0.2
25/02:08pm 17.5 11.1 5.4 45 5.9 WSW 28 57 15 31 1011.6 1011.7 0.2
25/02:00pm 16.6 10.8 4.3 44 5.8 WSW 24 37 13 20 1011.8 1011.9 0.2
25/01:30pm 17.0 11.5 5.9 48 5.4 SW 24 35 13 19 1011.8 1011.9 0.2
25/01:00pm 16.4 10.4 5.4 48 5.3 WSW 26 39 14 21 1011.8 1011.9 0.0
25/12:30pm 15.5 9.7 6.2 54 4.5 WSW 26 33 14 18 1011.9 1012.0 0.0
25/12:00pm 15.2 9.9 6.7 57 4.2 WSW 24 35 13 19 1012.0 1012.1 0.0
25/11:30am 15.2 10.0 7.3 59 3.9 WSW 24 35 13 19 1011.9 1012.0 0.0
25/11:00am 14.1 8.8 8.5 69 2.8 WSW 26 37 14 20 1011.8 1011.9 0.0
25/10:30am 13.6 8.8 7.4 66 3.1 WSW 22 30 12 16 1011.6 1011.7 0.0
25/10:00am 14.5 9.9 8.2 66 3.2 WSW 22 35 12 19 1011.5 1011.6 0.0
25/09:30am 12.6 8.2 8.9 78 1.9 W 22 30 12 16 1011.4 1011.5 0.0
25/09:00am 11.8 7.6 9.7 87 1.1 WNW 22 33 12 18 1011.3 1011.4 0.2
25/08:30am 11.2 6.9 9.5 89 0.9 W 22 32 12 17 1010.8 1010.8 0.2
25/08:00am 10.5 6.9 10.5 100 0.0 WNW 20 28 11 15 1010.3 1010.3 0.2
25/07:30am 9.4 6.8 9.4 100 0.0 WNW 13 20 7 11 1009.9 1009.9 0.2
25/07:00am 8.1 5.6 8.1 100 0.0 WNW 11 15 6 8 1009.2 1009.2 0.2
25/06:30am 7.9 4.6 7.9 100 0.0 W 15 19 8 10 1008.8 1008.8 0.2
25/06:00am 6.9 4.5 6.9 100 0.0 W 9 15 5 8 1008.1 1008.2 0.2
25/05:30am 7.6 5.3 7.6 100 0.0 W 9 13 5 7 1007.8 1007.9 0.2
25/05:00am 8.6 5.8 8.6 100 0.0 W 13 19 7 10 1007.5 1007.6 0.2
25/04:30am 9.0 6.7 9.0 100 0.0 W 11 13 6 7 1007.4 1007.5 0.2
25/04:00am 9.7 6.8 9.7 100 0.0 WNW 15 19 8 10 1007.1 1007.2 0.2
25/03:30am 10.0 7.2 10.0 100 0.0 WNW 15 22 8 12 1007.0 1007.1 0.2
25/03:00am 9.5 6.9 9.5 100 0.0 WNW 13 19 7 10 1006.8 1006.9 0.2
25/02:30am 9.8 6.9 9.8 100 0.0 WNW 15 20 8 11 1006.9 1007.0 0.2
25/02:00am 9.7 6.8 9.7 100 0.0 WNW 15 20 8 11 1007.1 1007.2 0.2
25/01:30am 10.4 7.0 10.4 100 0.0 WNW 19 28 10 15 1007.3 1007.4 0.2
25/01:00am 10.3 7.5 10.0 98 0.2 WNW 15 24 8 13 1007.3 1007.4 0.2
25/12:30am 10.6 7.2 10.4 99 0.1 WNW 19 26 10 14 1007.1 1007.2 0.2
25/12:00am 10.6 7.0 10.0 96 0.3 NW 19 26 10 14 1007.1 1007.2 0.2
 
Date/Time
EST
Temp
°C
App
Temp
°C
Dew
Point
°C
Rel
Hum
%
Delta-T
°C
Wind Press
QNH
hPa
Press
MSL
hPa
Rain since
9am
mm
Dir  Spd
km/h
Gust
km/h
Spd
kts
Gust
kts
24/11:30pm 10.3 7.1 9.8 97 0.3 WNW 17 22 9 12 1007.1 1007.2 0.2
24/11:00pm 10.8 7.2 10.0 95 0.4 WNW 19 30 10 16 1006.9 1007.0 0.2
24/10:30pm 10.9 7.2 10.3 96 0.3 WNW 20 30 11 16 1006.9 1007.0 0.2
24/10:00pm 11.1 6.6 10.0 93 0.6 WNW 24 35 13 19 1006.6 1006.7 0.2
24/09:30pm 12.5 6.4 8.4 76 2.0 WNW 30 43 16 23 1006.2 1006.3 0.0
24/09:00pm 12.4 6.3 8.1 75 2.1 WNW 30 44 16 24 1005.8 1005.9 0.0
24/08:30pm 12.1 7.8 7.8 75 2.1 WNW 20 33 11 18 1005.3 1005.4 0.0
24/08:00pm 11.9 7.6 7.8 76 2.0 WNW 20 28 11 15 1005.1 1005.2 0.0
24/07:30pm 12.4 7.2 7.3 71 2.5 WNW 24 35 13 19 1004.4 1004.5 0.0
24/07:06pm 13.0 6.4 7.9 71 2.5 WNW 32 50 17 27 1004.1 1004.2 0.0
24/07:00pm 13.3 6.6 8.2 71 2.6 W 33 50 18 27 1004.0 1004.1 0.0
24/06:40pm 14.5 8.2 7.5 63 3.5 W 30 54 16 29 1003.4 1003.4 0.0
24/06:30pm 14.8 8.3 6.6 58 4.0 W 30 41 16 22 1003.1 1003.1 0.0
24/06:00pm 15.8 8.2 5.7 51 4.9 WNW 35 54 19 29 1002.4 1002.4 0.0
24/05:53pm 15.9 8.6 5.5 50 5.0 WNW 33 52 18 28 1002.4 1002.4 0.0
24/05:30pm 16.3 9.0 5.3 48 5.3 WNW 33 46 18 25 1002.0 1002.0 0.0
24/05:00pm 16.5 9.4 6.6 52 4.9 WNW 33 44 18 24 1001.6 1001.6 0.0
24/04:30pm 16.8 9.0 4.8 45 5.7 WNW 35 54 19 29 1001.4 1001.4 0.0
24/04:05pm 18.3 10.2 3.4 37 7.0 WNW 35 54 19 29 1001.0 1001.0 0.0
24/04:00pm 17.7 9.7 3.9 40 6.6 WNW 35 50 19 27 1001.0 1001.0 0.0
24/03:35pm 18.5 9.9 2.8 35 7.3 WNW 37 57 20 31 1000.9 1000.9 0.0
24/03:30pm 18.7 9.9 3.7 37 7.1 WNW 39 54 21 29 1001.0 1001.0 0.0
24/03:00pm 17.9 8.2 2.6 36 7.1 WNW 43 70 23 38 1001.0 1001.0 0.0
24/02:30pm 19.2 8.2 0.8 29 8.3 WNW 48 69 26 37 1000.8 1000.8 0.0
24/02:02pm 18.1 8.3 2.0 34 7.3 WNW 43 61 23 33 1000.8 1000.8 0.0
24/02:00pm 18.7 8.7 2.1 33 7.7 WNW 44 61 24 33 1000.9 1000.9 0.0
24/01:31pm 18.8 10.2 2.6 34 7.5 WNW 37 56 20 30 1001.0 1001.0 0.0
24/01:30pm 18.1 9.0 2.0 34 7.3 WNW 39 56 21 30 1001.0 1001.0 0.0
24/01:00pm 18.2 9.2 2.5 35 7.3 WNW 39 59 21 32 1001.1 1001.1 0.0
24/12:30pm 18.1 9.6 5.3 43 6.2 WNW 39 59 21 32 1001.3 1001.3 0.0
24/12:00pm 17.1 9.5 5.7 47 5.6 WNW 35 56 19 30 1001.7 1001.7 0.0
24/11:31am 17.1 9.3 4.8 44 5.9 WNW 35 54 19 29 1001.6 1001.6 0.0
24/11:30am 17.2 9.6 5.8 47 5.6 WNW 35 48 19 26 1001.7 1001.7 0.0
24/11:13am 16.8 9.8 6.0 49 5.3 WNW 32 52 17 28 1002.1 1002.1 0.0
24/11:00am 15.8 10.0 7.8 59 4.1 WNW 28 43 15 23 1002.1 1002.1 0.0
24/10:30am 14.7 9.1 8.6 67 3.1 W 28 39 15 21 1002.3 1002.3 0.0
24/10:21am 14.4 7.6 7.7 64 3.3 WNW 33 52 18 28 1002.4 1002.4 0.0
24/10:00am 15.0 7.9 6.6 57 4.1 WNW 33 48 18 26 1002.0 1002.0 0.0
24/09:43am 15.2 7.9 7.0 58 4.0 WNW 35 54 19 29 1001.9 1001.9 0.0
24/09:30am 14.7 7.4 7.3 61 3.7 NW 35 48 19 26 1002.1 1002.1 0.0
24/09:00am 13.9 7.6 8.9 72 2.6 NW 32 43 17 23 1002.2 1002.2 0.0
24/08:30am 12.4 6.9 9.1 80 1.7 NW 28 43 15 23 1002.2 1002.2 0.0
24/08:00am 11.1 6.4 9.2 88 1.0 NNW 24 32 13 17 1002.1 1002.1 0.0
24/07:30am 9.4 4.8 8.2 92 0.6 NNW 22 28 12 15 1001.7 1001.7 0.0
24/07:00am 8.2 3.8 7.6 96 0.3 NNW 20 26 11 14 1001.6 1001.6 0.0
24/06:30am 7.7 3.5 7.4 98 0.1 NNW 19 28 10 15 1001.3 1001.3 0.0
24/06:00am 7.8 4.0 7.4 97 0.2 NNW 17 20 9 11 1001.0 1001.0 0.0
24/05:30am 8.5 4.4 7.9 96 0.3 NNW 19 26 10 14 1000.8 1000.8 0.0
24/05:00am 8.8 4.5 8.0 95 0.4 NNW 20 28 11 15 1000.6 1000.6 0.0
24/04:30am 8.8 4.6 8.4 97 0.2 NNW 20 28 11 15 1000.3 1000.3 0.0
24/04:00am 9.1 5.9 8.3 95 0.4 NW 15 19 8 10 1000.1 1000.1 0.0
24/03:52am 9.6 6.0 8.2 91 0.7 NW 17 22 9 12 1000.2 1000.2 0.0
24/03:30am 10.4 3.4 8.5 88 0.9 W 35 56 19 30 1001.3 1001.3 0.0
24/03:23am 9.7 4.8 8.6 93 0.5 NW 24 56 13 30 1001.7 1001.7 0.0
24/03:00am 9.1 5.2 8.8 98 0.1 NNW 19 26 10 14 1000.9 1000.9 0.0
24/02:30am 8.7 5.5 8.6 99 0.0 NW 15 20 8 11 1001.3 1001.3 0.0
24/02:00am 9.2 6.1 8.9 98 0.1 NW 15 17 8 9 1001.8 1001.8 0.0
24/01:30am 9.6 6.4 8.4 92 0.6 NW 15 20 8 11 1002.0 1002.0 0.0
24/01:00am 10.4 6.4 8.3 87 1.0 WNW 19 26 10 14 1002.1 1002.1 0.0
24/12:30am 10.2 6.2 8.1 87 1.0 WNW 19 26 10 14 1002.2 1002.2 0.0
24/12:00am 10.0 6.3 7.8 86 1.1 NW 17 24 9 13 1002.1 1002.1 0.0
 
Date/Time
EST
Temp
°C
App
Temp
°C
Dew
Point
°C
Rel
Hum
%
Delta-T
°C
Wind Press
QNH
hPa
Press
MSL
hPa
Rain since
9am
mm
Dir  Spd
km/h
Gust
km/h
Spd
kts
Gust
kts
23/11:30pm 9.2 5.8 7.8 91 0.7 NW 15 20 8 11 1002.4 1002.4 0.0
23/11:00pm 9.1 6.4 7.4 89 0.8 WNW 11 15 6 8 1002.5 1002.5 0.0
23/10:30pm 9.5 7.2 7.3 86 1.0 WNW 9 15 5 8 1002.5 1002.5 0.0
23/10:00pm 11.1 8.1 7.8 80 1.6 WNW 13 19 7 10 1002.3 1002.3 0.0
23/09:30pm 11.7 8.5 6.8 72 2.3 WNW 13 15 7 8 1002.0 1002.0 0.0
23/09:00pm 12.8 9.5 6.2 64 3.2 WNW 13 19 7 10 1002.0 1002.0 0.0
23/08:30pm 14.2 8.3 5.6 56 4.1 W 26 33 14 18 1001.6 1001.6 0.0
23/08:00pm 15.0 9.3 6.8 58 4.0 W 26 37 14 20 1000.8 1000.8 0.0
23/07:30pm 15.7 9.3 7.0 56 4.3 W 30 39 16 21 1000.1 1000.1 0.0
23/07:05pm 16.4 8.9 6.5 52 4.9 W 35 54 19 29 999.8 999.8 0.0
23/07:00pm 16.5 8.2 6.1 50 5.1 W 39 54 21 29 999.8 999.8 0.0
23/06:31pm 17.0 9.0 5.6 47 5.5 W 37 56 20 30 999.2 999.3 0.0
23/06:30pm 17.0 8.6 5.6 47 5.5 W 39 56 21 30 999.1 999.2 0.0
23/06:00pm 18.6 8.2 4.0 38 7.0 W 48 72 26 39 998.4 998.5 0.0
23/05:38pm 19.6 11.3 9.2 51 5.5 W 43 69 23 37 997.8 997.9 0.0
23/05:30pm 20.1 11.9 9.7 51 5.6 W 43 54 23 29 997.6 997.7 0.0
23/05:00pm 21.2 11.5 9.1 46 6.5 W 50 70 27 38 996.8 996.8 0.0
23/04:30pm 22.5 12.7 8.6 41 7.4 W 50 69 27 37 995.9 995.9 0.0
23/04:00pm 24.2 14.8 8.6 37 8.5 W 48 69 26 37 994.9 994.9 0.0
23/03:31pm 25.3 15.6 9.2 36 8.8 W 50 69 27 37 994.3 994.3 0.0
23/03:30pm 25.5 15.4 8.9 35 9.0 W 52 69 28 37 994.1 994.1 0.0
23/03:02pm 26.9 17.2 7.4 29 10.4 W 48 67 26 36 993.5 993.5 0.0
23/03:00pm 27.0 17.3 7.5 29 10.5 WNW 48 65 26 35 993.4 993.4 0.0
23/02:30pm 27.9 17.5 6.1 25 11.5 WNW 50 82 27 44 993.0 993.0 0.0
23/02:00pm 29.0 18.7 6.4 24 12.1 WNW 50 69 27 37 992.7 992.7 0.0
23/01:30pm 29.3 19.0 6.7 24 12.1 WNW 50 72 27 39 992.6 992.6 0.0
23/01:00pm 29.6 19.7 5.0 21 12.9 NW 46 67 25 36 992.5 992.5 0.0
23/12:30pm 29.9 19.3 3.0 18 13.6 WNW 48 72 26 39 992.2 992.2 0.0
23/12:00pm 30.1 21.5 4.7 20 13.3 NW 39 59 21 32 991.9 991.9 0.0
23/11:40am 29.0 21.7 4.5 21 12.6 NNW 32 57 17 31 992.3 992.3 0.0
23/11:30am 28.3 21.3 5.8 24 11.8 NNW 32 43 17 23 992.6 992.6 0.0
23/11:00am 26.3 19.3 5.8 27 10.7 N 32 44 17 24 993.0 993.0 0.0
23/10:30am 24.5 19.4 7.6 34 9.0 N 24 32 13 17 993.6 993.6 0.0
23/10:00am 22.4 18.2 8.1 40 7.6 NNE 20 28 11 15 994.1 994.1 0.0
23/09:30am 20.7 17.7 10.5 52 5.6 NE 17 20 9 11 994.7 994.7 0.0
23/09:00am 19.0 15.7 9.5 54 5.1 ENE 17 20 9 11 995.3 995.3 0.0
23/08:30am 17.2 14.3 9.6 61 4.0 ESE 15 19 8 10 996.1 996.1 0.0
23/08:00am 15.7 13.3 10.0 69 3.0 ESE 13 17 7 9 996.5 996.5 0.0
23/07:30am 13.4 12.0 9.6 78 2.0 SE 7 11 4 6 997.2 997.3 0.0
23/07:00am 10.5 8.5 8.6 88 0.9 SSW 9 11 5 6 997.9 998.0 0.0
23/06:30am 10.9 7.7 8.3 84 1.3 SW 15 19 8 10 997.7 997.8 0.0
23/06:00am 12.1 9.4 8.8 80 1.7 SW 13 17 7 9 998.4 998.5 0.0
23/05:30am 12.7 10.7 8.6 76 2.1 NE 9 11 5 6 997.8 997.9 0.0
23/05:00am 13.5 10.4 8.8 73 2.4 NE 15 17 8 9 997.9 998.0 0.0
23/04:30am 13.8 10.7 8.8 72 2.5 ENE 15 19 8 10 997.9 998.0 0.0
23/04:00am 13.7 10.2 8.7 72 2.5 NE 17 22 9 12 998.6 998.7 0.0
23/03:30am 14.0 9.9 8.8 71 2.6 NE 20 28 11 15 999.1 999.2 0.0
23/03:00am 13.9 10.4 8.9 72 2.6 NE 17 20 9 11 1000.4 1000.4 0.0
23/02:30am 13.4 10.0 9.3 76 2.1 NE 17 20 9 11 1001.0 1001.0 0.0
23/02:00am 13.1 9.5 9.9 81 1.7 ENE 19 22 10 12 1001.6 1001.6 0.0
23/01:30am 13.3 13.0 10.1 81 1.7 SE 2 9 1 5 1003.1 1003.1 0.0
23/01:00am 14.1 10.4 10.3 78 2.0 S 20 32 11 17 1003.6 1003.6 0.0
23/12:30am 13.0 10.2 10.0 82 1.6 NE 15 19 8 10 1002.5 1002.5 0.0
23/12:00am 12.4 9.2 10.0 85 1.2 NE 17 20 9 11 1002.8 1002.8 0.0
 
Date/Time
EST
Temp
°C
App
Temp
°C
Dew
Point
°C
Rel
Hum
%
Delta-T
°C
Wind Press
QNH
hPa
Press
MSL
hPa
Rain since
9am
mm
Dir  Spd
km/h
Gust
km/h
Spd
kts
Gust
kts
22/11:30pm 12.6 9.8 10.0 84 1.3 NE 15 19 8 10 1003.4 1003.4 0.0
22/11:00pm 12.0 9.0 9.2 83 1.4 NE 15 19 8 10 1003.8 1003.8 0.0
22/10:30pm 13.3 10.4 8.2 71 2.5 NE 13 15 7 8 1004.2 1004.3 0.0
22/10:00pm 11.3 8.3 7.8 79 1.7 NE 13 15 7 8 1004.4 1004.5 0.0
22/09:30pm 13.4 10.9 8.3 71 2.6 NE 11 13 6 7 1004.6 1004.7 0.0
22/09:00pm 13.8 11.0 8.6 71 2.6 NE 13 15 7 8 1004.5 1004.6 0.0
22/08:30pm 12.7 9.3 9.2 79 1.8 NE 17 17 9 9 1004.4 1004.5 0.0
22/08:00pm 14.6 12.9 10.0 74 2.4 NE 9 13 5 7 1004.5 1004.6 0.0
22/07:30pm 14.7 12.0 10.5 76 2.2 NE 15 15 8 8 1004.5 1004.6 0.0
22/07:00pm 14.6 11.5 10.4 76 2.2 NE 17 19 9 10 1004.5 1004.6 0.0
22/06:30pm 17.8 15.8 11.6 67 3.4 NE 13 15 7 8 1004.5 1004.6 0.0

Other Formats:

Comma delimited format used in spreadsheet applications
http://www.bom.gov.au/fwo/IDV60801/IDV60801.94920.axf

JavaScript Object Notation format (JSON) in row-major order
http://www.bom.gov.au/fwo/IDV60801/IDV60801.94920.json